sensor_id;sensor_type;location;lat;lon;timestamp;temperature;humidity
24426;DHT22;12611;44.446;26.000;2023-03-23T00:00:19;14.20;91.30
24426;DHT22;12611;44.446;26.000;2023-03-23T00:02:47;14.20;91.40
24426;DHT22;12611;44.446;26.000;2023-03-23T00:05:14;14.20;91.40
24426;DHT22;12611;44.446;26.000;2023-03-23T00:07:41;14.20;91.40
24426;DHT22;12611;44.446;26.000;2023-03-23T00:10:11;14.20;91.40
24426;DHT22;12611;44.446;26.000;2023-03-23T00:12:38;14.20;91.40
24426;DHT22;12611;44.446;26.000;2023-03-23T00:15:09;14.20;91.40
24426;DHT22;12611;44.446;26.000;2023-03-23T00:17:40;14.30;91.40
24426;DHT22;12611;44.446;26.000;2023-03-23T00:20:09;14.30;91.30
24426;DHT22;12611;44.446;26.000;2023-03-23T00:22:38;14.30;91.30
24426;DHT22;12611;44.446;26.000;2023-03-23T00:25:07;14.30;91.30
24426;DHT22;12611;44.446;26.000;2023-03-23T00:27:35;14.30;91.30
24426;DHT22;12611;44.446;26.000;2023-03-23T00:30:02;14.30;91.30
24426;DHT22;12611;44.446;26.000;2023-03-23T00:32:30;14.20;91.30
24426;DHT22;12611;44.446;26.000;2023-03-23T00:34:58;14.20;91.30
24426;DHT22;12611;44.446;26.000;2023-03-23T00:37:26;14.20;91.40
24426;DHT22;12611;44.446;26.000;2023-03-23T00:39:53;14.20;91.40
24426;DHT22;12611;44.446;26.000;2023-03-23T00:42:23;14.10;91.30
24426;DHT22;12611;44.446;26.000;2023-03-23T00:44:52;14.10;91.20
24426;DHT22;12611;44.446;26.000;2023-03-23T00:47:25;14.10;91.60
24426;DHT22;12611;44.446;26.000;2023-03-23T00:49:53;14.00;91.50
24426;DHT22;12611;44.446;26.000;2023-03-23T00:52:23;14.00;91.40
24426;DHT22;12611;44.446;26.000;2023-03-23T00:54:51;14.00;91.30
24426;DHT22;12611;44.446;26.000;2023-03-23T00:57:18;14.00;91.20
24426;DHT22;12611;44.446;26.000;2023-03-23T00:59:45;13.90;91.10
24426;DHT22;12611;44.446;26.000;2023-03-23T01:02:14;13.90;91.00
24426;DHT22;12611;44.446;26.000;2023-03-23T01:04:42;13.90;91.00
24426;DHT22;12611;44.446;26.000;2023-03-23T01:07:10;13.90;90.90
24426;DHT22;12611;44.446;26.000;2023-03-23T01:09:39;13.90;90.90
24426;DHT22;12611;44.446;26.000;2023-03-23T01:12:11;13.80;90.80
24426;DHT22;12611;44.446;26.000;2023-03-23T01:14:38;13.80;90.80
24426;DHT22;12611;44.446;26.000;2023-03-23T01:17:05;13.70;90.70
24426;DHT22;12611;44.446;26.000;2023-03-23T01:19:32;13.80;90.70
24426;DHT22;12611;44.446;26.000;2023-03-23T01:21:59;13.70;90.70
24426;DHT22;12611;44.446;26.000;2023-03-23T01:24:27;13.70;90.70
24426;DHT22;12611;44.446;26.000;2023-03-23T01:26:55;13.70;90.70
24426;DHT22;12611;44.446;26.000;2023-03-23T01:29:23;13.60;90.70
24426;DHT22;12611;44.446;26.000;2023-03-23T01:31:50;13.60;90.70
24426;DHT22;12611;44.446;26.000;2023-03-23T01:34:17;13.50;90.60
24426;DHT22;12611;44.446;26.000;2023-03-23T01:36:44;13.50;90.60
24426;DHT22;12611;44.446;26.000;2023-03-23T01:39:11;13.40;90.50
24426;DHT22;12611;44.446;26.000;2023-03-23T01:41:39;13.50;90.60
24426;DHT22;12611;44.446;26.000;2023-03-23T01:47:14;13.40;90.60
24426;DHT22;12611;44.446;26.000;2023-03-23T01:49:43;13.30;90.50
24426;DHT22;12611;44.446;26.000;2023-03-23T01:52:15;13.40;90.60
24426;DHT22;12611;44.446;26.000;2023-03-23T01:54:44;13.40;90.60
24426;DHT22;12611;44.446;26.000;2023-03-23T01:57:14;13.40;90.60
24426;DHT22;12611;44.446;26.000;2023-03-23T01:59:47;13.40;90.50
24426;DHT22;12611;44.446;26.000;2023-03-23T02:02:16;13.40;90.50
24426;DHT22;12611;44.446;26.000;2023-03-23T02:04:44;13.40;90.50
24426;DHT22;12611;44.446;26.000;2023-03-23T02:07:12;13.30;90.50
24426;DHT22;12611;44.446;26.000;2023-03-23T02:09:40;13.30;90.50
24426;DHT22;12611;44.446;26.000;2023-03-23T02:12:08;13.30;90.50
24426;DHT22;12611;44.446;26.000;2023-03-23T02:14:35;13.20;90.50
24426;DHT22;12611;44.446;26.000;2023-03-23T02:17:07;13.20;90.50
24426;DHT22;12611;44.446;26.000;2023-03-23T02:19:55;13.20;90.50
24426;DHT22;12611;44.446;26.000;2023-03-23T02:23:01;13.10;90.50
24426;DHT22;12611;44.446;26.000;2023-03-23T02:31:34;13.00;90.50
24426;DHT22;12611;44.446;26.000;2023-03-23T02:34:10;13.00;90.50
24426;DHT22;12611;44.446;26.000;2023-03-23T02:36:42;12.90;90.50
24426;DHT22;12611;44.446;26.000;2023-03-23T02:39:14;13.00;90.50
24426;DHT22;12611;44.446;26.000;2023-03-23T02:41:49;12.90;90.60
24426;DHT22;12611;44.446;26.000;2023-03-23T02:44:17;13.00;90.60
24426;DHT22;12611;44.446;26.000;2023-03-23T02:46:45;12.90;90.50
24426;DHT22;12611;44.446;26.000;2023-03-23T02:49:15;12.90;90.50
24426;DHT22;12611;44.446;26.000;2023-03-23T02:51:46;12.90;90.40
24426;DHT22;12611;44.446;26.000;2023-03-23T02:54:15;12.90;90.30
24426;DHT22;12611;44.446;26.000;2023-03-23T02:56:43;12.90;90.30
24426;DHT22;12611;44.446;26.000;2023-03-23T02:59:11;12.90;90.30
24426;DHT22;12611;44.446;26.000;2023-03-23T03:01:52;12.80;90.30
24426;DHT22;12611;44.446;26.000;2023-03-23T03:04:23;12.80;90.10
24426;DHT22;12611;44.446;26.000;2023-03-23T03:07:09;12.80;90.10
24426;DHT22;12611;44.446;26.000;2023-03-23T03:09:44;12.80;90.20
24426;DHT22;12611;44.446;26.000;2023-03-23T03:12:18;12.70;90.10
24426;DHT22;12611;44.446;26.000;2023-03-23T03:14:52;12.70;90.10
24426;DHT22;12611;44.446;26.000;2023-03-23T03:17:25;12.60;90.00
24426;DHT22;12611;44.446;26.000;2023-03-23T03:19:57;12.60;90.00
24426;DHT22;12611;44.446;26.000;2023-03-23T03:22:26;12.60;90.10
24426;DHT22;12611;44.446;26.000;2023-03-23T03:24:56;12.60;90.20
24426;DHT22;12611;44.446;26.000;2023-03-23T03:27:25;12.60;90.20
24426;DHT22;12611;44.446;26.000;2023-03-23T03:29:56;12.50;90.20
24426;DHT22;12611;44.446;26.000;2023-03-23T03:32:28;12.50;90.20
24426;DHT22;12611;44.446;26.000;2023-03-23T03:35:00;12.50;90.20
24426;DHT22;12611;44.446;26.000;2023-03-23T03:37:33;12.50;90.20
24426;DHT22;12611;44.446;26.000;2023-03-23T03:40:05;12.50;90.20
24426;DHT22;12611;44.446;26.000;2023-03-23T03:42:37;12.40;90.10
24426;DHT22;12611;44.446;26.000;2023-03-23T03:45:06;12.40;90.10
24426;DHT22;12611;44.446;26.000;2023-03-23T03:47:34;12.40;90.20
24426;DHT22;12611;44.446;26.000;2023-03-23T03:50:03;12.40;90.20
24426;DHT22;12611;44.446;26.000;2023-03-23T03:52:31;12.40;90.10
24426;DHT22;12611;44.446;26.000;2023-03-23T03:54:58;12.30;90.10
24426;DHT22;12611;44.446;26.000;2023-03-23T03:57:26;12.30;90.10
24426;DHT22;12611;44.446;26.000;2023-03-23T03:59:53;12.30;90.10
24426;DHT22;12611;44.446;26.000;2023-03-23T04:02:20;12.30;90.10
24426;DHT22;12611;44.446;26.000;2023-03-23T04:04:48;12.30;90.10
24426;DHT22;12611;44.446;26.000;2023-03-23T04:07:17;12.20;90.10
24426;DHT22;12611;44.446;26.000;2023-03-23T04:09:44;12.20;90.10
24426;DHT22;12611;44.446;26.000;2023-03-23T04:12:13;12.20;90.20
24426;DHT22;12611;44.446;26.000;2023-03-23T04:14:40;12.20;90.20
24426;DHT22;12611;44.446;26.000;2023-03-23T04:17:08;12.20;90.20
24426;DHT22;12611;44.446;26.000;2023-03-23T04:19:36;12.20;90.20
24426;DHT22;12611;44.446;26.000;2023-03-23T04:22:04;12.10;90.20
24426;DHT22;12611;44.446;26.000;2023-03-23T04:24:34;12.20;90.30
24426;DHT22;12611;44.446;26.000;2023-03-23T04:27:01;12.20;90.30
24426;DHT22;12611;44.446;26.000;2023-03-23T04:29:29;12.20;90.30
24426;DHT22;12611;44.446;26.000;2023-03-23T04:31:56;12.20;90.20
24426;DHT22;12611;44.446;26.000;2023-03-23T04:34:23;12.10;90.20
24426;DHT22;12611;44.446;26.000;2023-03-23T04:36:51;12.10;90.30
24426;DHT22;12611;44.446;26.000;2023-03-23T04:39:18;12.10;90.30
24426;DHT22;12611;44.446;26.000;2023-03-23T04:41:47;12.10;90.30
24426;DHT22;12611;44.446;26.000;2023-03-23T04:44:14;12.10;90.30
24426;DHT22;12611;44.446;26.000;2023-03-23T04:46:44;12.10;90.30
24426;DHT22;12611;44.446;26.000;2023-03-23T04:49:16;12.10;90.30
24426;DHT22;12611;44.446;26.000;2023-03-23T04:51:48;12.10;90.30
24426;DHT22;12611;44.446;26.000;2023-03-23T04:54:16;12.10;90.30
24426;DHT22;12611;44.446;26.000;2023-03-23T04:56:44;12.10;90.40
24426;DHT22;12611;44.446;26.000;2023-03-23T04:59:12;12.00;90.40
24426;DHT22;12611;44.446;26.000;2023-03-23T05:01:40;12.00;90.50
24426;DHT22;12611;44.446;26.000;2023-03-23T05:04:11;12.00;90.40
24426;DHT22;12611;44.446;26.000;2023-03-23T05:06:42;12.00;90.60
24426;DHT22;12611;44.446;26.000;2023-03-23T05:09:11;12.00;90.60
24426;DHT22;12611;44.446;26.000;2023-03-23T05:11:38;12.00;90.60
24426;DHT22;12611;44.446;26.000;2023-03-23T05:14:06;12.00;90.70
24426;DHT22;12611;44.446;26.000;2023-03-23T05:16:35;12.00;90.60
24426;DHT22;12611;44.446;26.000;2023-03-23T05:19:03;12.00;90.60
24426;DHT22;12611;44.446;26.000;2023-03-23T05:21:31;12.00;90.70
24426;DHT22;12611;44.446;26.000;2023-03-23T05:23:58;11.90;90.70
24426;DHT22;12611;44.446;26.000;2023-03-23T05:26:26;11.90;90.80
24426;DHT22;12611;44.446;26.000;2023-03-23T05:28:54;11.90;90.80
24426;DHT22;12611;44.446;26.000;2023-03-23T05:31:22;11.90;90.90
24426;DHT22;12611;44.446;26.000;2023-03-23T05:33:51;11.80;90.90
24426;DHT22;12611;44.446;26.000;2023-03-23T05:36:18;11.80;90.90
24426;DHT22;12611;44.446;26.000;2023-03-23T05:38:46;11.80;90.90
24426;DHT22;12611;44.446;26.000;2023-03-23T05:41:13;11.80;90.90
24426;DHT22;12611;44.446;26.000;2023-03-23T05:43:41;11.90;91.00
24426;DHT22;12611;44.446;26.000;2023-03-23T05:46:08;11.90;91.00
24426;DHT22;12611;44.446;26.000;2023-03-23T05:48:35;11.90;91.00
24426;DHT22;12611;44.446;26.000;2023-03-23T05:51:05;12.00;91.10
24426;DHT22;12611;44.446;26.000;2023-03-23T05:53:32;12.00;91.10
24426;DHT22;12611;44.446;26.000;2023-03-23T05:56:03;12.00;91.20
24426;DHT22;12611;44.446;26.000;2023-03-23T05:58:30;12.00;91.20
24426;DHT22;12611;44.446;26.000;2023-03-23T06:00:58;12.00;91.10
24426;DHT22;12611;44.446;26.000;2023-03-23T06:03:25;12.00;91.20
24426;DHT22;12611;44.446;26.000;2023-03-23T06:05:52;12.00;91.20
24426;DHT22;12611;44.446;26.000;2023-03-23T06:08:21;12.00;91.30
24426;DHT22;12611;44.446;26.000;2023-03-23T06:10:48;12.00;91.90
24426;DHT22;12611;44.446;26.000;2023-03-23T06:13:16;12.00;91.60
24426;DHT22;12611;44.446;26.000;2023-03-23T06:15:44;12.00;91.70
24426;DHT22;12611;44.446;26.000;2023-03-23T06:18:11;12.00;91.70
24426;DHT22;12611;44.446;26.000;2023-03-23T06:20:38;12.10;91.80
24426;DHT22;12611;44.446;26.000;2023-03-23T06:23:06;12.10;91.90
24426;DHT22;12611;44.446;26.000;2023-03-23T06:25:36;12.10;92.00
24426;DHT22;12611;44.446;26.000;2023-03-23T06:28:03;12.10;92.10
24426;DHT22;12611;44.446;26.000;2023-03-23T06:30:30;12.10;92.10
24426;DHT22;12611;44.446;26.000;2023-03-23T06:32:57;12.20;92.10
24426;DHT22;12611;44.446;26.000;2023-03-23T06:35:24;12.20;92.10
24426;DHT22;12611;44.446;26.000;2023-03-23T06:37:52;12.20;92.00
24426;DHT22;12611;44.446;26.000;2023-03-23T06:40:19;12.20;92.00
24426;DHT22;12611;44.446;26.000;2023-03-23T06:42:48;12.30;92.00
24426;DHT22;12611;44.446;26.000;2023-03-23T06:45:16;12.30;92.00
24426;DHT22;12611;44.446;26.000;2023-03-23T06:47:45;12.40;91.80
24426;DHT22;12611;44.446;26.000;2023-03-23T06:50:14;12.40;91.80
24426;DHT22;12611;44.446;26.000;2023-03-23T06:52:45;12.30;91.40
24426;DHT22;12611;44.446;26.000;2023-03-23T06:55:13;12.30;91.40
24426;DHT22;12611;44.446;26.000;2023-03-23T06:57:40;12.20;91.50
24426;DHT22;12611;44.446;26.000;2023-03-23T07:00:12;12.20;91.40
24426;DHT22;12611;44.446;26.000;2023-03-23T07:02:40;12.20;91.40
24426;DHT22;12611;44.446;26.000;2023-03-23T07:05:07;12.30;91.50
24426;DHT22;12611;44.446;26.000;2023-03-23T07:07:36;12.30;91.50
24426;DHT22;12611;44.446;26.000;2023-03-23T07:10:04;12.40;91.50
24426;DHT22;12611;44.446;26.000;2023-03-23T07:12:32;12.40;91.50
24426;DHT22;12611;44.446;26.000;2023-03-23T07:15:01;12.50;91.40
24426;DHT22;12611;44.446;26.000;2023-03-23T07:17:30;12.60;91.40
24426;DHT22;12611;44.446;26.000;2023-03-23T07:19:58;12.70;91.40
24426;DHT22;12611;44.446;26.000;2023-03-23T07:22:25;12.80;91.40
24426;DHT22;12611;44.446;26.000;2023-03-23T07:24:52;12.90;91.30
24426;DHT22;12611;44.446;26.000;2023-03-23T07:27:20;12.90;91.30
24426;DHT22;12611;44.446;26.000;2023-03-23T07:29:47;13.10;91.40
24426;DHT22;12611;44.446;26.000;2023-03-23T07:32:15;13.10;91.40
24426;DHT22;12611;44.446;26.000;2023-03-23T07:34:44;13.20;91.30
24426;DHT22;12611;44.446;26.000;2023-03-23T07:37:11;13.30;91.40
24426;DHT22;12611;44.446;26.000;2023-03-23T07:39:39;13.30;91.30
24426;DHT22;12611;44.446;26.000;2023-03-23T07:42:07;13.40;91.40
24426;DHT22;12611;44.446;26.000;2023-03-23T07:44:34;13.50;91.30
24426;DHT22;12611;44.446;26.000;2023-03-23T07:47:02;13.50;91.70
24426;DHT22;12611;44.446;26.000;2023-03-23T07:49:29;13.60;91.30
24426;DHT22;12611;44.446;26.000;2023-03-23T07:51:58;13.70;91.30
24426;DHT22;12611;44.446;26.000;2023-03-23T07:54:27;13.70;91.30
24426;DHT22;12611;44.446;26.000;2023-03-23T07:56:54;13.80;91.30
24426;DHT22;12611;44.446;26.000;2023-03-23T07:59:21;13.80;91.40
24426;DHT22;12611;44.446;26.000;2023-03-23T08:01:48;13.90;91.40
24426;DHT22;12611;44.446;26.000;2023-03-23T08:04:15;14.00;91.50
24426;DHT22;12611;44.446;26.000;2023-03-23T08:06:43;14.00;91.70
24426;DHT22;12611;44.446;26.000;2023-03-23T08:09:12;14.10;91.40
24426;DHT22;12611;44.446;26.000;2023-03-23T08:11:43;14.10;91.40
24426;DHT22;12611;44.446;26.000;2023-03-23T08:14:10;14.20;91.40
24426;DHT22;12611;44.446;26.000;2023-03-23T08:16:38;14.20;91.40
24426;DHT22;12611;44.446;26.000;2023-03-23T08:19:05;14.30;91.30
24426;DHT22;12611;44.446;26.000;2023-03-23T08:21:32;14.30;91.40
24426;DHT22;12611;44.446;26.000;2023-03-23T08:24:00;14.40;91.50
24426;DHT22;12611;44.446;26.000;2023-03-23T08:26:29;14.40;91.70
24426;DHT22;12611;44.446;26.000;2023-03-23T08:28:56;14.50;91.70
24426;DHT22;12611;44.446;26.000;2023-03-23T08:31:24;14.40;91.70
24426;DHT22;12611;44.446;26.000;2023-03-23T08:33:51;14.40;91.80
24426;DHT22;12611;44.446;26.000;2023-03-23T08:36:18;14.40;91.70
24426;DHT22;12611;44.446;26.000;2023-03-23T08:38:45;14.40;91.90
24426;DHT22;12611;44.446;26.000;2023-03-23T08:41:13;14.50;91.90
24426;DHT22;12611;44.446;26.000;2023-03-23T08:43:41;14.50;91.80
24426;DHT22;12611;44.446;26.000;2023-03-23T08:46:09;14.50;91.90
24426;DHT22;12611;44.446;26.000;2023-03-23T08:48:37;14.60;91.90
24426;DHT22;12611;44.446;26.000;2023-03-23T08:51:06;14.60;92.00
24426;DHT22;12611;44.446;26.000;2023-03-23T08:53:34;14.70;92.00
24426;DHT22;12611;44.446;26.000;2023-03-23T08:56:04;14.70;91.90
24426;DHT22;12611;44.446;26.000;2023-03-23T08:58:31;14.70;91.80
24426;DHT22;12611;44.446;26.000;2023-03-23T09:01:00;14.80;91.70
24426;DHT22;12611;44.446;26.000;2023-03-23T09:03:28;14.80;91.60
24426;DHT22;12611;44.446;26.000;2023-03-23T09:05:58;14.90;91.60
24426;DHT22;12611;44.446;26.000;2023-03-23T09:08:26;14.90;91.30
24426;DHT22;12611;44.446;26.000;2023-03-23T09:10:54;15.00;91.40
24426;DHT22;12611;44.446;26.000;2023-03-23T09:13:22;15.10;91.30
24426;DHT22;12611;44.446;26.000;2023-03-23T09:15:49;15.10;91.10
24426;DHT22;12611;44.446;26.000;2023-03-23T09:18:22;15.20;91.20
24426;DHT22;12611;44.446;26.000;2023-03-23T09:20:50;15.30;91.00
24426;DHT22;12611;44.446;26.000;2023-03-23T09:23:18;15.30;90.60
24426;DHT22;12611;44.446;26.000;2023-03-23T09:25:46;15.40;90.50
24426;DHT22;12611;44.446;26.000;2023-03-23T09:28:14;15.50;90.70
24426;DHT22;12611;44.446;26.000;2023-03-23T09:30:41;15.60;90.50
24426;DHT22;12611;44.446;26.000;2023-03-23T09:33:09;15.70;90.50
24426;DHT22;12611;44.446;26.000;2023-03-23T09:35:38;15.70;90.20
24426;DHT22;12611;44.446;26.000;2023-03-23T09:38:08;15.70;90.20
24426;DHT22;12611;44.446;26.000;2023-03-23T09:40:42;15.80;90.10
24426;DHT22;12611;44.446;26.000;2023-03-23T09:43:28;15.90;90.10
24426;DHT22;12611;44.446;26.000;2023-03-23T09:46:07;16.00;89.60
24426;DHT22;12611;44.446;26.000;2023-03-23T09:48:45;16.00;89.40
24426;DHT22;12611;44.446;26.000;2023-03-23T09:51:27;16.10;88.90
24426;DHT22;12611;44.446;26.000;2023-03-23T09:54:00;16.30;89.00
24426;DHT22;12611;44.446;26.000;2023-03-23T09:56:31;16.30;88.00
24426;DHT22;12611;44.446;26.000;2023-03-23T09:59:05;16.30;87.70
24426;DHT22;12611;44.446;26.000;2023-03-23T10:01:36;16.50;87.70
24426;DHT22;12611;44.446;26.000;2023-03-23T10:04:09;16.50;87.60
24426;DHT22;12611;44.446;26.000;2023-03-23T10:06:39;16.60;86.80
24426;DHT22;12611;44.446;26.000;2023-03-23T10:09:08;16.60;86.20
24426;DHT22;12611;44.446;26.000;2023-03-23T10:11:46;16.80;85.30
24426;DHT22;12611;44.446;26.000;2023-03-23T10:14:24;16.90;84.80
24426;DHT22;12611;44.446;26.000;2023-03-23T10:17:00;16.80;83.20
24426;DHT22;12611;44.446;26.000;2023-03-23T10:19:35;16.90;82.40
24426;DHT22;12611;44.446;26.000;2023-03-23T10:22:09;17.00;82.30
24426;DHT22;12611;44.446;26.000;2023-03-23T10:24:43;17.10;82.10
24426;DHT22;12611;44.446;26.000;2023-03-23T10:27:20;17.10;80.70
24426;DHT22;12611;44.446;26.000;2023-03-23T10:29:53;17.20;80.70
24426;DHT22;12611;44.446;26.000;2023-03-23T10:32:39;17.30;81.40
24426;DHT22;12611;44.446;26.000;2023-03-23T10:35:11;17.30;79.20
24426;DHT22;12611;44.446;26.000;2023-03-23T10:37:45;17.50;80.00
24426;DHT22;12611;44.446;26.000;2023-03-23T10:40:16;17.50;78.50
24426;DHT22;12611;44.446;26.000;2023-03-23T10:42:45;17.60;77.50
24426;DHT22;12611;44.446;26.000;2023-03-23T10:45:17;17.60;77.80
24426;DHT22;12611;44.446;26.000;2023-03-23T10:47:51;17.70;78.60
24426;DHT22;12611;44.446;26.000;2023-03-23T10:50:27;17.80;78.60
24426;DHT22;12611;44.446;26.000;2023-03-23T10:52:59;17.90;77.50
24426;DHT22;12611;44.446;26.000;2023-03-23T10:55:37;18.00;75.90
24426;DHT22;12611;44.446;26.000;2023-03-23T10:58:07;18.10;74.60
24426;DHT22;12611;44.446;26.000;2023-03-23T11:00:41;18.10;75.50
24426;DHT22;12611;44.446;26.000;2023-03-23T11:03:39;18.30;75.70
24426;DHT22;12611;44.446;26.000;2023-03-23T11:06:08;18.30;73.20
24426;DHT22;12611;44.446;26.000;2023-03-23T11:08:47;18.40;74.00
24426;DHT22;12611;44.446;26.000;2023-03-23T11:11:17;18.50;75.10
24426;DHT22;12611;44.446;26.000;2023-03-23T11:13:46;18.60;72.70
24426;DHT22;12611;44.446;26.000;2023-03-23T11:16:23;18.70;72.00
24426;DHT22;12611;44.446;26.000;2023-03-23T11:18:51;18.70;72.00
24426;DHT22;12611;44.446;26.000;2023-03-23T11:21:20;18.80;72.20
24426;DHT22;12611;44.446;26.000;2023-03-23T11:23:51;18.80;69.90
24426;DHT22;12611;44.446;26.000;2023-03-23T11:26:22;18.70;69.00
24426;DHT22;12611;44.446;26.000;2023-03-23T11:28:54;18.70;67.80
24426;DHT22;12611;44.446;26.000;2023-03-23T11:31:23;18.80;68.90
24426;DHT22;12611;44.446;26.000;2023-03-23T11:33:56;18.90;69.20
24426;DHT22;12611;44.446;26.000;2023-03-23T11:36:31;19.00;69.70
24426;DHT22;12611;44.446;26.000;2023-03-23T11:39:01;19.20;70.40
24426;DHT22;12611;44.446;26.000;2023-03-23T11:41:34;19.30;68.40
24426;DHT22;12611;44.446;26.000;2023-03-23T11:44:10;19.40;68.60
24426;DHT22;12611;44.446;26.000;2023-03-23T11:46:45;19.60;68.80
24426;DHT22;12611;44.446;26.000;2023-03-23T11:49:22;19.70;68.70
24426;DHT22;12611;44.446;26.000;2023-03-23T11:51:55;19.90;68.60
24426;DHT22;12611;44.446;26.000;2023-03-23T11:54:29;19.90;67.90
24426;DHT22;12611;44.446;26.000;2023-03-23T11:56:57;20.10;67.30
24426;DHT22;12611;44.446;26.000;2023-03-23T11:59:29;20.10;66.50
24426;DHT22;12611;44.446;26.000;2023-03-23T12:02:13;20.20;67.00
24426;DHT22;12611;44.446;26.000;2023-03-23T12:05:14;20.30;66.80
24426;DHT22;12611;44.446;26.000;2023-03-23T12:07:53;20.40;66.10
24426;DHT22;12611;44.446;26.000;2023-03-23T12:10:30;20.50;64.90
24426;DHT22;12611;44.446;26.000;2023-03-23T12:13:09;20.50;63.10
24426;DHT22;12611;44.446;26.000;2023-03-23T12:15:48;20.60;64.10
24426;DHT22;12611;44.446;26.000;2023-03-23T12:18:23;20.60;63.20
24426;DHT22;12611;44.446;26.000;2023-03-23T12:21:04;20.70;61.50
24426;DHT22;12611;44.446;26.000;2023-03-23T12:23:38;20.80;59.70
24426;DHT22;12611;44.446;26.000;2023-03-23T12:26:19;20.80;59.40
24426;DHT22;12611;44.446;26.000;2023-03-23T12:28:59;21.00;59.20
24426;DHT22;12611;44.446;26.000;2023-03-23T12:31:38;21.10;59.20
24426;DHT22;12611;44.446;26.000;2023-03-23T12:34:12;21.20;58.40
24426;DHT22;12611;44.446;26.000;2023-03-23T12:36:53;21.30;58.70
24426;DHT22;12611;44.446;26.000;2023-03-23T12:39:53;21.40;59.00
24426;DHT22;12611;44.446;26.000;2023-03-23T12:42:33;21.50;58.20
24426;DHT22;12611;44.446;26.000;2023-03-23T12:45:18;21.60;58.60
24426;DHT22;12611;44.446;26.000;2023-03-23T12:47:50;21.60;58.90
24426;DHT22;12611;44.446;26.000;2023-03-23T12:50:23;21.70;58.50
24426;DHT22;12611;44.446;26.000;2023-03-23T12:52:55;21.80;58.60
24426;DHT22;12611;44.446;26.000;2023-03-23T12:55:30;22.00;58.30
24426;DHT22;12611;44.446;26.000;2023-03-23T12:58:04;22.00;56.80
24426;DHT22;12611;44.446;26.000;2023-03-23T13:00:50;22.00;57.40
24426;DHT22;12611;44.446;26.000;2023-03-23T13:03:23;22.00;57.50
24426;DHT22;12611;44.446;26.000;2023-03-23T13:05:57;21.90;57.80
24426;DHT22;12611;44.446;26.000;2023-03-23T13:08:30;21.90;58.10
24426;DHT22;12611;44.446;26.000;2023-03-23T13:11:01;21.90;57.20
24426;DHT22;12611;44.446;26.000;2023-03-23T13:13:45;22.00;56.40
24426;DHT22;12611;44.446;26.000;2023-03-23T13:16:20;22.10;56.70
24426;DHT22;12611;44.446;26.000;2023-03-23T13:18:59;22.20;57.30
24426;DHT22;12611;44.446;26.000;2023-03-23T13:21:31;22.50;57.30
24426;DHT22;12611;44.446;26.000;2023-03-23T13:24:01;22.70;57.70
24426;DHT22;12611;44.446;26.000;2023-03-23T13:26:30;22.90;56.80
24426;DHT22;12611;44.446;26.000;2023-03-23T13:29:00;23.10;56.20
24426;DHT22;12611;44.446;26.000;2023-03-23T13:31:30;23.40;56.30
24426;DHT22;12611;44.446;26.000;2023-03-23T13:34:15;23.60;54.40
24426;DHT22;12611;44.446;26.000;2023-03-23T13:36:44;23.80;53.10
24426;DHT22;12611;44.446;26.000;2023-03-23T13:39:20;24.20;53.50
24426;DHT22;12611;44.446;26.000;2023-03-23T13:42:02;24.60;53.20
24426;DHT22;12611;44.446;26.000;2023-03-23T13:44:43;24.90;52.30
24426;DHT22;12611;44.446;26.000;2023-03-23T13:47:26;25.00;50.60
24426;DHT22;12611;44.446;26.000;2023-03-23T13:49:56;25.40;51.30
24426;DHT22;12611;44.446;26.000;2023-03-23T13:52:36;26.10;50.00
24426;DHT22;12611;44.446;26.000;2023-03-23T13:55:29;26.40;47.50
24426;DHT22;12611;44.446;26.000;2023-03-23T13:57:57;27.10;47.00
24426;DHT22;12611;44.446;26.000;2023-03-23T14:00:44;28.20;46.60
24426;DHT22;12611;44.446;26.000;2023-03-23T14:03:15;29.60;45.30
24426;DHT22;12611;44.446;26.000;2023-03-23T14:05:44;30.40;42.70
24426;DHT22;12611;44.446;26.000;2023-03-23T14:08:19;30.60;42.10
24426;DHT22;12611;44.446;26.000;2023-03-23T14:10:51;29.50;42.30
24426;DHT22;12611;44.446;26.000;2023-03-23T14:13:21;29.00;43.00
24426;DHT22;12611;44.446;26.000;2023-03-23T14:16:14;28.90;43.10
24426;DHT22;12611;44.446;26.000;2023-03-23T14:19:00;29.50;43.20
24426;DHT22;12611;44.446;26.000;2023-03-23T14:21:34;29.60;43.00
24426;DHT22;12611;44.446;26.000;2023-03-23T14:24:03;29.70;43.10
24426;DHT22;12611;44.446;26.000;2023-03-23T14:26:33;28.90;43.10
24426;DHT22;12611;44.446;26.000;2023-03-23T14:29:03;28.10;43.90
24426;DHT22;12611;44.446;26.000;2023-03-23T14:31:34;27.40;44.70
24426;DHT22;12611;44.446;26.000;2023-03-23T14:34:04;26.80;45.70
24426;DHT22;12611;44.446;26.000;2023-03-23T14:36:35;26.50;46.80
24426;DHT22;12611;44.446;26.000;2023-03-23T14:39:05;26.30;47.50
24426;DHT22;12611;44.446;26.000;2023-03-23T14:41:35;26.00;48.00
24426;DHT22;12611;44.446;26.000;2023-03-23T14:44:08;25.70;48.60
24426;DHT22;12611;44.446;26.000;2023-03-23T14:46:37;25.30;49.30
24426;DHT22;12611;44.446;26.000;2023-03-23T14:49:05;24.90;49.90
24426;DHT22;12611;44.446;26.000;2023-03-23T14:51:32;24.50;50.40
24426;DHT22;12611;44.446;26.000;2023-03-23T14:54:23;24.20;50.50
24426;DHT22;12611;44.446;26.000;2023-03-23T14:57:09;24.00;50.90
24426;DHT22;12611;44.446;26.000;2023-03-23T14:59:44;23.70;51.30
24426;DHT22;12611;44.446;26.000;2023-03-23T15:02:18;23.50;51.50
24426;DHT22;12611;44.446;26.000;2023-03-23T15:04:53;23.60;51.30
24426;DHT22;12611;44.446;26.000;2023-03-23T15:07:32;23.40;51.60
24426;DHT22;12611;44.446;26.000;2023-03-23T15:10:00;23.20;52.00
24426;DHT22;12611;44.446;26.000;2023-03-23T15:12:29;23.00;52.60
24426;DHT22;12611;44.446;26.000;2023-03-23T15:14:58;22.80;53.20
24426;DHT22;12611;44.446;26.000;2023-03-23T15:17:29;22.50;53.60
24426;DHT22;12611;44.446;26.000;2023-03-23T15:19:58;22.30;54.10
24426;DHT22;12611;44.446;26.000;2023-03-23T15:22:34;22.10;54.40
24426;DHT22;12611;44.446;26.000;2023-03-23T15:25:08;21.80;55.10
24426;DHT22;12611;44.446;26.000;2023-03-23T15:27:40;21.70;55.70
24426;DHT22;12611;44.446;26.000;2023-03-23T15:30:26;21.60;56.50
24426;DHT22;12611;44.446;26.000;2023-03-23T15:33:01;21.40;57.30
24426;DHT22;12611;44.446;26.000;2023-03-23T15:35:33;21.20;57.80
24426;DHT22;12611;44.446;26.000;2023-03-23T15:38:03;21.10;58.20
24426;DHT22;12611;44.446;26.000;2023-03-23T15:40:43;21.00;58.30
24426;DHT22;12611;44.446;26.000;2023-03-23T15:43:22;20.90;58.90
24426;DHT22;12611;44.446;26.000;2023-03-23T15:45:56;20.70;59.10
24426;DHT22;12611;44.446;26.000;2023-03-23T15:48:27;20.60;59.70